Station: Cooktown  

  Atmospheric Gas Attenuation - ITU Rec 676-11   ----------------- dB/100km -----------------
Date Time Temp RH % AH g/m3 Dew Point Wind Direction Speed kph Gust kph Barometer mB Rainfall Since 9am 24GHz 47GHz 76GHz 122GHz 134GHz 241GHz
08/05 12:40 27.9 76 20.56 23.3 22 32 1013.2 0 43.9 41.6 81.5 215.8 239.8 833.4
08/05 12:30 27.7 74 19.8 22.6 26 43 1013.3 0 42.4 40.3 78.2 206.9 228.8 795.2
08/05 12:20 27.6 73 19.42 22.3 32 43 1013.4 0 41.6 39.6 76.5 202.5 223.4 776.4
08/05 12:10 27.8 73 19.64 22.5 26 35 1013.6 0 42.0 39.9 77.4 204.7 226.2 785.9
08/05 12:00 27.3 73 19.1 22 26 48 1013.7 0 40.9 39.2 75.4 199.4 219.5 762.8
08/05 11:50 27.2 76 19.78 22.6 22 28 1013.8 0 42.4 40.5 78.6 208.1 230.1 799.7
08/05 11:40 27.1 76 19.67 22.5 22 30 1014 0 42.1 40.3 78.2 207.0 228.8 795.0
08/05 11:30 26.6 76 19.13 22 28 44 1014.1 0 41.1 39.6 76.2 201.7 222.1 771.7
08/05 11:20 26.3 76 18.81 21.7 26 35 1014.1 0 40.4 39.1 75.0 198.5 218.2 757.9
08/05 11:10 27.4 73 19.21 22.3 26 32 1014.3 0 41.1 39.3 75.8 200.6 221.0 767.9
08/05 11:00 27.6 74 19.69 22.5 26 44 1014.2 0 42.1 40.1 77.8 205.9 227.6 791.0
08/05 10:50 27.2 77 20.04 22.8 26 37 1014.3 0 42.9 41.0 79.9 211.4 234.2 813.8
08/05 10:40 26.7 76 19.24 22.1 20 26 1014.4 0 41.3 39.7 76.7 202.8 223.5 776.6
08/05 10:30 26.5 76 19.03 21.9 24 30 1014.5 0 40.9 39.4 75.9 200.8 221.0 767.6
08/05 10:20 26.7 76 19.24 22.1 24 32 1014.5 0 41.3 39.7 76.7 202.8 223.5 776.7
08/05 10:10 26.7 77 19.49 22.3 20 28 1014.6 0 41.8 40.2 77.8 205.9 227.4 790.0
08/05 10:00 26.5 77 19.28 22.1 24 35 1014.8 0 41.4 39.9 77.1 203.9 224.8 781.0
08/05 09:50 26.6 76 19.13 22 24 30 1014.7 0 41.1 39.6 76.3 201.8 222.2 772.0
08/05 09:40 26.8 78 19.85 22.6 11 13 1014.7 0 42.6 40.8 79.4 210.2 232.6 808.2
08/05 09:30 26.5 76 19.03 21.9 26 39 1014.8 0 40.9 39.5 75.9 200.8 221.0 767.8
08/05 09:20 26.5 77 19.28 22.1 22 28 1014.7 0 41.4 39.9 77.1 203.9 224.8 781.0
08/05 09:10 26.8 75 19.09 22 26 33 1014.6 0 41.0 39.4 75.9 200.7 221.0 767.8
08/05 09:00 26.3 76 18.81 21.7 20 33 1014.5 0 40.4 39.1 75.1 198.6 218.2 758.1
08/05 08:50 27.1 77 19.93 22.7 19 20 1014.4 0 42.7 40.8 79.5 210.3 232.8 809.1
08/05 08:40 26.5 76 19.03 21.9 24 33 1014.3 0 40.9 39.4 75.9 200.7 220.9 767.5
08/05 08:30 26 80 19.48 22.3 15 24 1014.3 0 41.9 40.5 78.5 207.7 229.3 796.6
08/05 08:20 25.6 81 19.28 22.1 13 17 1014.3 0 41.5 40.3 78.0 206.3 227.4 790.1
08/05 08:10 25.4 80 18.83 21.7 19 26 1014.3 0 40.5 39.6 76.1 201.2 221.1 768.1
08/05 08:00 25.4 79 18.6 21.5 15 28 1013.9 0 40.1 39.1 75.0 198.2 217.6 755.7
08/05 07:50 25.3 79 18.49 21.4 17 24 1013.8 0 39.8 39.0 74.5 197.1 216.2 750.8
08/05 07:40 25 80 18.42 21.3 13 20 1013.7 0 39.7 39.0 74.5 197.0 215.9 750.0
08/05 07:30 25.2 80 18.62 21.5 13 19 1013.6 0 40.1 39.2 75.2 199.0 218.4 758.6
08/05 07:20 25.1 79 18.29 21.2 15 19 1013.5 0 39.4 38.7 73.8 195.1 213.7 742.1
08/05 07:10 24.8 80 18.21 21.1 20 24 1013.4 0 39.3 38.7 73.7 194.9 213.3 740.7
08/05 07:00 24.5 81 18.13 21 13 20 1013.4 0 39.2 38.6 73.6 194.7 212.9 739.4
08/05 06:50 24 83 18.06 20.9 9 11 1013.3 0 39.1 38.7 73.8 195.1 213.3 740.5
08/05 06:40 24.1 82 17.94 20.8 11 13 1013.2 0 38.8 38.5 73.1 193.3 211.1 733.1
08/05 06:30 24.1 82 17.94 20.8 13 20 1013.1 0 38.8 38.5 73.1 193.3 211.1 733.1
08/05 06:20 24.2 82 18.04 20.9 15 17 1013.1 0 39.0 38.6 73.5 194.3 212.4 737.4
08/05 06:10 24.1 83 18.16 21 9 11 1013 0 39.3 38.9 74.1 196.0 214.5 744.7
08/05 06:00 23.9 84 18.17 21 11 20 1012.9 0 39.3 39.0 74.4 196.6 215.2 747.2
08/05 05:50 24.1 83 18.16 21 15 19 1012.7 0 39.3 38.9 74.1 196.0 214.4 744.6
08/05 05:40 24 83 18.06 20.9 11 15 1012.6 0 39.1 38.7 73.7 195.0 213.2 740.2
08/05 05:30 24 83 18.06 20.9 13 19 1012.6 0 39.1 38.7 73.7 195.0 213.2 740.2
08/05 05:20 24 83 18.06 20.9 13 17 1012.5 0 39.1 38.7 73.7 194.9 213.1 740.1
08/05 05:10 23.9 84 18.17 21 9 9 1012.5 0 39.3 39.0 74.3 196.6 215.1 747.0
08/05 05:00 24.1 83 18.16 21 15 22 1012.4 0 39.3 38.8 74.1 195.9 214.4 744.4
08/05 04:50 24 83 18.06 20.9 11 13 1012.4 0 39.1 38.7 73.7 194.9 213.1 740.1
08/05 04:40 24 84 18.27 21.1 15 19 1012.4 0 39.5 39.1 74.7 197.6 216.4 751.3
08/05 04:30 24 84 18.27 21.1 15 24 1012.3 0 39.5 39.1 74.7 197.5 216.3 751.2
08/05 04:20 23.7 85 18.18 21 15 26 1012.4 0 39.4 39.1 74.6 197.2 215.8 749.4
08/05 04:10 23.6 85 18.08 20.9 15 17 1012.5 0 39.1 38.9 74.2 196.2 214.6 745.1
08/05 04:00 23.8 84 18.07 20.9 13 19 1012.5 0 39.1 38.8 74.0 195.6 213.9 742.6
08/05 03:50 23.8 84 18.07 20.9 11 15 1012.4 0 39.1 38.8 73.9 195.6 213.9 742.6
08/05 03:40 23.7 85 18.18 21 9 13 1012.3 0 39.4 39.1 74.6 197.2 215.8 749.4
08/05 03:30 23.7 84 17.97 20.8 9 17 1012.3 0 38.9 38.7 73.6 194.6 212.6 738.2
08/05 03:20 24 84 18.27 21.1 11 13 1012.4 0 39.5 39.1 74.7 197.6 216.4 751.3
08/05 03:10 23.9 85 18.39 21.2 11 15 1012.4 0 39.8 39.4 75.4 199.3 218.5 758.7
08/05 03:00 23.8 86 18.5 21.3 9 13 1012.4 0 40.0 39.6 76.0 201.0 220.5 765.7
08/05 02:50 23.9 86 18.6 21.4 9 11 1012.4 0 40.2 39.8 76.4 202.0 221.7 770.0
08/05 02:40 24 86 18.71 21.5 9 13 1012.4 0 40.5 39.9 76.8 203.1 223.2 775.0
08/05 02:30 24.2 86 18.92 21.7 13 17 1012.4 0 40.9 40.2 77.6 205.2 225.8 784.3
08/05 02:20 24.2 87 19.14 21.9 11 15 1012.5 0 41.3 40.7 78.6 208.0 229.3 796.3
08/05 02:10 24.1 87 19.03 21.8 11 15 1012.6 0 41.1 40.5 78.2 206.9 227.9 791.4
08/05 02:00 24.1 88 19.25 22 11 13 1012.7 0 41.6 40.9 79.3 209.8 231.3 803.5
08/05 01:50 24.2 87 19.14 21.9 11 13 1012.7 0 41.3 40.7 78.7 208.1 229.3 796.4
08/05 01:40 24.1 88 19.25 22 7 9 1012.8 0 41.6 40.9 79.3 209.8 231.4 803.5
08/05 01:30 24.1 88 19.25 22 9 15 1013 0 41.6 40.9 79.3 209.8 231.4 803.6
08/05 01:20 24.2 87 19.14 21.9 9 9 1013 0 41.3 40.7 78.7 208.1 229.4 796.5
08/05 01:10 24.5 86 19.25 22 13 15 1013.2 0 41.5 40.8 78.9 208.7 230.2 799.5
08/05 01:00 24.7 85 19.24 22 9 17 1013.3 0 41.5 40.6 78.6 208.1 229.4 796.9
08/05 00:50 24.7 85 19.24 22 11 15 1013.3 0 41.5 40.6 78.6 208.1 229.4 796.9
08/05 00:40 24.7 85 19.24 22 11 15 1013.4 0 41.5 40.7 78.7 208.1 229.4 796.9
08/05 00:30 24.6 86 19.36 22.1 11 17 1013.5 0 41.8 40.9 79.3 209.9 231.6 804.6
08/05 00:20 24.3 86 19.03 21.8 7 9 1013.5 0 41.1 40.4 78.1 206.5 227.4 789.8
08/05 00:10 24.4 86 19.14 21.9 11 15 1013.6 0 41.3 40.6 78.5 207.7 228.8 794.8
08/05 00:00 24.6 85 19.13 21.9 13 20 1013.7 0 41.3 40.5 78.2 207.0 228.1 792.2
07/05 23:50 24.7 85 19.24 22 17 19 1013.8 0 41.5 40.7 78.7 208.1 229.5 797.1
07/05 23:40 24.6 85 19.13 21.9 11 15 1013.9 0 41.3 40.5 78.3 207.0 228.1 792.3
07/05 23:30 24.7 85 19.24 22 13 19 1014 0 41.5 40.7 78.7 208.2 229.5 797.2
07/05 23:20 24.5 85 19.02 21.8 9 9 1014 0 41.0 40.4 77.8 205.9 226.7 787.4
07/05 23:10 24.8 84 19.12 21.9 11 13 1014 0 41.2 40.4 78.0 206.4 227.4 789.7
07/05 23:00 24.9 83 19 21.8 13 20 1014 0 41.0 40.1 77.3 204.6 225.2 782.2
07/05 22:50 25.1 83 19.21 22 15 20 1014 0 41.4 40.4 78.1 206.7 227.8 791.4
07/05 22:40 25 84 19.34 22.1 17 24 1014.1 0 41.7 40.7 78.9 208.6 230.2 799.5
07/05 22:30 25.1 85 19.68 22.4 13 19 1014.2 0 42.4 41.3 80.4 212.7 235.2 817.0
07/05 22:20 25 85 19.57 22.3 11 13 1014.4 0 42.2 41.2 80.0 211.6 233.8 812.2
07/05 22:10 24.9 85 19.46 22.2 13 15 1014.3 0 41.9 41.0 79.6 210.5 232.4 807.2
07/05 22:00 24.9 84 19.23 22 15 20 1014.3 0 41.5 40.6 78.5 207.5 228.8 794.7
07/05 21:50 24.9 84 19.23 22 9 9 1014.4 0 41.5 40.6 78.5 207.6 228.8 794.8
07/05 21:40 25.2 83 19.32 22.1 19 26 1014.5 0 41.6 40.6 78.6 207.9 229.3 796.6
07/05 21:30 24.9 85 19.46 22.2 15 22 1014.5 0 41.9 41.0 79.6 210.5 232.4 807.3
07/05 21:20 24.9 85 19.46 22.2 11 15 1014.5 0 41.9 41.0 79.6 210.5 232.4 807.3
07/05 21:10 24.9 85 19.46 22.2 17 20 1014.4 0 41.9 41.0 79.6 210.5 232.4 807.3
07/05 21:00 24.9 84 19.23 22 15 26 1014.4 0 41.5 40.6 78.5 207.6 228.8 794.8
07/05 20:50 25 84 19.34 22.1 20 24 1014.4 0 41.7 40.7 78.9 208.7 230.2 799.7
07/05 20:40 25 84 19.34 22.1 17 20 1014.3 0 41.7 40.7 78.9 208.7 230.2 799.6
07/05 20:30 25 84 19.34 22.1 19 26 1014.3 0 41.7 40.7 78.9 208.7 230.2 799.6
07/05 20:20 25 85 19.57 22.3 20 26 1014.2 0 42.2 41.2 80.0 211.6 233.8 812.1
07/05 20:10 24.7 86 19.47 22.2 13 17 1014.1 0 42.0 41.1 79.8 211.1 233.2 809.8

Last Refresh: 08-May-2026 12:09:37

Bureau of Meteorology